sensor_id;sensor_type;location;lat;lon;timestamp;pressure;altitude;pressure_sealevel;temperature;humidity
75627;BME280;67372;49.404;11.034;2023-12-07T00:02:18;98371.66;;;2.71;85.07
75627;BME280;67372;49.404;11.034;2023-12-07T00:04:45;98382.34;;;2.69;84.50
75627;BME280;67372;49.404;11.034;2023-12-07T00:07:12;98374.44;;;2.69;84.58
75627;BME280;67372;49.404;11.034;2023-12-07T00:09:38;98381.03;;;2.73;84.89
75627;BME280;67372;49.404;11.034;2023-12-07T00:12:05;98378.91;;;2.77;84.56
75627;BME280;67372;49.404;11.034;2023-12-07T00:14:31;98371.66;;;2.79;84.82
75627;BME280;67372;49.404;11.034;2023-12-07T00:16:58;98372.97;;;2.83;84.83
75627;BME280;67372;49.404;11.034;2023-12-07T00:19:24;98364.94;;;2.85;84.79
75627;BME280;67372;49.404;11.034;2023-12-07T00:21:50;98371.84;;;2.86;84.75
75627;BME280;67372;49.404;11.034;2023-12-07T00:24:17;98372.50;;;2.88;84.44
75627;BME280;67372;49.404;11.034;2023-12-07T00:26:43;98376.94;;;2.87;84.67
75627;BME280;67372;49.404;11.034;2023-12-07T00:29:09;98380.41;;;2.88;83.98
75627;BME280;67372;49.404;11.034;2023-12-07T00:31:36;98383.03;;;2.88;84.26
75627;BME280;67372;49.404;11.034;2023-12-07T00:34:02;98383.50;;;2.83;83.44
75627;BME280;67372;49.404;11.034;2023-12-07T00:36:29;98384.81;;;2.79;83.38
75627;BME280;67372;49.404;11.034;2023-12-07T00:38:55;98388.44;;;2.78;84.08
75627;BME280;67372;49.404;11.034;2023-12-07T00:41:22;98387.78;;;2.76;83.72
75627;BME280;67372;49.404;11.034;2023-12-07T00:43:48;98389.59;;;2.75;83.95
75627;BME280;67372;49.404;11.034;2023-12-07T00:46:14;98402.44;;;2.70;84.08
75627;BME280;67372;49.404;11.034;2023-12-07T00:48:41;98399.31;;;2.67;84.13
75627;BME280;67372;49.404;11.034;2023-12-07T00:51:08;98396.00;;;2.65;83.91
75627;BME280;67372;49.404;11.034;2023-12-07T00:53:34;98407.53;;;2.64;84.62
75627;BME280;67372;49.404;11.034;2023-12-07T00:56:02;98405.06;;;2.62;84.33
75627;BME280;67372;49.404;11.034;2023-12-07T00:58:30;98410.63;;;2.59;83.81
75627;BME280;67372;49.404;11.034;2023-12-07T01:00:56;98409.97;;;2.57;84.43
75627;BME280;67372;49.404;11.034;2023-12-07T01:03:23;98415.06;;;2.59;85.03
75627;BME280;67372;49.404;11.034;2023-12-07T01:05:49;98418.19;;;2.54;84.91
75627;BME280;67372;49.404;11.034;2023-12-07T01:08:16;98416.38;;;2.55;84.93
75627;BME280;67372;49.404;11.034;2023-12-07T01:10:42;98420.66;;;2.56;84.64
75627;BME280;67372;49.404;11.034;2023-12-07T01:13:09;98423.28;;;2.56;84.50
75627;BME280;67372;49.404;11.034;2023-12-07T01:15:35;98420.66;;;2.56;84.62
75627;BME280;67372;49.404;11.034;2023-12-07T01:18:02;98421.31;;;2.58;84.54
75627;BME280;67372;49.404;11.034;2023-12-07T01:20:28;98427.25;;;2.60;83.92
75627;BME280;67372;49.404;11.034;2023-12-07T01:22:54;98430.72;;;2.60;83.86
75627;BME280;67372;49.404;11.034;2023-12-07T01:25:21;98435.13;;;2.60;84.58
75627;BME280;67372;49.404;11.034;2023-12-07T01:27:48;98441.09;;;2.62;84.16
75627;BME280;67372;49.404;11.034;2023-12-07T01:30:15;98443.03;;;2.60;84.81
75627;BME280;67372;49.404;11.034;2023-12-07T01:32:41;98453.13;;;2.64;84.66
75627;BME280;67372;49.404;11.034;2023-12-07T01:35:08;98451.16;;;2.66;84.64
75627;BME280;67372;49.404;11.034;2023-12-07T01:37:34;98453.44;;;2.69;84.27
75627;BME280;67372;49.404;11.034;2023-12-07T01:40:02;98460.88;;;2.74;84.33
75627;BME280;67372;49.404;11.034;2023-12-07T01:42:28;98464.00;;;2.77;84.23
75627;BME280;67372;49.404;11.034;2023-12-07T01:44:54;98465.16;;;2.83;84.32
75627;BME280;67372;49.404;11.034;2023-12-07T01:47:21;98461.09;;;2.89;84.30
75627;BME280;67372;49.404;11.034;2023-12-07T01:49:47;98461.75;;;2.91;83.61
75627;BME280;67372;49.404;11.034;2023-12-07T01:52:14;98457.47;;;2.90;82.74
75627;BME280;67372;49.404;11.034;2023-12-07T01:54:40;98468.31;;;2.87;83.63
75627;BME280;67372;49.404;11.034;2023-12-07T01:57:08;98458.63;;;2.87;83.68
75627;BME280;67372;49.404;11.034;2023-12-07T01:59:34;98464.72;;;2.88;82.72
75627;BME280;67372;49.404;11.034;2023-12-07T02:02:01;98470.59;;;2.82;82.22
75627;BME280;67372;49.404;11.034;2023-12-07T02:04:27;98470.25;;;2.76;82.74
75627;BME280;67372;49.404;11.034;2023-12-07T02:06:57;98476.00;;;2.72;82.92
75627;BME280;67372;49.404;11.034;2023-12-07T02:09:23;98468.94;;;2.72;84.05
75627;BME280;67372;49.404;11.034;2023-12-07T02:11:50;98468.78;;;2.74;83.78
75627;BME280;67372;49.404;11.034;2023-12-07T02:14:16;98471.09;;;2.77;83.03
75627;BME280;67372;49.404;11.034;2023-12-07T02:16:45;98478.16;;;2.76;82.84
75627;BME280;67372;49.404;11.034;2023-12-07T02:19:41;98477.66;;;2.73;83.47
75627;BME280;67372;49.404;11.034;2023-12-07T02:22:28;98478.47;;;2.73;83.50
75627;BME280;67372;49.404;11.034;2023-12-07T02:25:07;98484.72;;;2.72;83.62
75627;BME280;67372;49.404;11.034;2023-12-07T02:27:36;98481.13;;;2.73;83.16
75627;BME280;67372;49.404;11.034;2023-12-07T02:30:03;98481.28;;;2.72;83.23
75627;BME280;67372;49.404;11.034;2023-12-07T02:32:30;98478.97;;;2.69;83.65
75627;BME280;67372;49.404;11.034;2023-12-07T02:34:56;98478.63;;;2.64;83.69
75627;BME280;67372;49.404;11.034;2023-12-07T02:37:27;98483.22;;;2.62;83.47
75627;BME280;67372;49.404;11.034;2023-12-07T02:39:56;98482.53;;;2.60;83.48
75627;BME280;67372;49.404;11.034;2023-12-07T02:42:24;98484.50;;;2.58;84.07
75627;BME280;67372;49.404;11.034;2023-12-07T02:44:56;98487.13;;;2.58;84.22
75627;BME280;67372;49.404;11.034;2023-12-07T02:47:28;98483.34;;;2.52;84.17
75627;BME280;67372;49.404;11.034;2023-12-07T02:49:54;98477.41;;;2.50;84.11
75627;BME280;67372;49.404;11.034;2023-12-07T02:52:31;98483.66;;;2.49;84.24
75627;BME280;67372;49.404;11.034;2023-12-07T02:54:58;98483.66;;;2.49;84.74
75627;BME280;67372;49.404;11.034;2023-12-07T02:57:24;98489.75;;;2.50;84.87
75627;BME280;67372;49.404;11.034;2023-12-07T02:59:50;98494.19;;;2.49;84.34
75627;BME280;67372;49.404;11.034;2023-12-07T03:02:17;98490.41;;;2.52;84.97
75627;BME280;67372;49.404;11.034;2023-12-07T03:04:43;98486.28;;;2.49;85.01
75627;BME280;67372;49.404;11.034;2023-12-07T03:07:10;98492.38;;;2.50;84.72
75627;BME280;67372;49.404;11.034;2023-12-07T03:09:36;98495.16;;;2.48;85.11
75627;BME280;67372;49.404;11.034;2023-12-07T03:12:03;98498.47;;;2.50;84.80
75627;BME280;67372;49.404;11.034;2023-12-07T03:14:30;98496.00;;;2.49;85.06
75627;BME280;67372;49.404;11.034;2023-12-07T03:16:56;98498.78;;;2.47;85.06
75627;BME280;67372;49.404;11.034;2023-12-07T03:19:22;98493.69;;;2.45;85.22
75627;BME280;67372;49.404;11.034;2023-12-07T03:21:49;98502.41;;;2.46;85.10
75627;BME280;67372;49.404;11.034;2023-12-07T03:24:16;98500.91;;;2.43;85.56
75627;BME280;67372;49.404;11.034;2023-12-07T03:26:42;98501.56;;;2.45;85.83
75627;BME280;67372;49.404;11.034;2023-12-07T03:29:08;98511.28;;;2.45;85.37
75627;BME280;67372;49.404;11.034;2023-12-07T03:31:35;98500.25;;;2.41;85.33
75627;BME280;67372;49.404;11.034;2023-12-07T03:34:01;98504.69;;;2.41;85.52
75627;BME280;67372;49.404;11.034;2023-12-07T03:36:28;98504.84;;;2.39;85.63
75627;BME280;67372;49.404;11.034;2023-12-07T03:38:57;98512.06;;;2.37;85.30
75627;BME280;67372;49.404;11.034;2023-12-07T03:41:23;98508.75;;;2.35;85.87
75627;BME280;67372;49.404;11.034;2023-12-07T03:43:50;98508.09;;;2.33;86.20
75627;BME280;67372;49.404;11.034;2023-12-07T03:46:16;98510.72;;;2.33;85.71
75627;BME280;67372;49.404;11.034;2023-12-07T03:48:43;98512.38;;;2.34;85.74
75627;BME280;67372;49.404;11.034;2023-12-07T03:51:12;98515.53;;;2.38;85.78
75627;BME280;67372;49.404;11.034;2023-12-07T03:53:39;98508.63;;;2.37;85.43
75627;BME280;67372;49.404;11.034;2023-12-07T03:56:06;98504.03;;;2.39;85.53
75627;BME280;67372;49.404;11.034;2023-12-07T03:58:32;98509.28;;;2.39;85.59
75627;BME280;67372;49.404;11.034;2023-12-07T04:00:59;98507.63;;;2.38;85.45
75627;BME280;67372;49.404;11.034;2023-12-07T04:03:25;98514.56;;;2.39;85.17
75627;BME280;67372;49.404;11.034;2023-12-07T04:05:52;98513.72;;;2.38;85.35
75627;BME280;67372;49.404;11.034;2023-12-07T04:08:18;98512.22;;;2.36;85.44
75627;BME280;67372;49.404;11.034;2023-12-07T04:10:44;98521.09;;;2.35;85.29
75627;BME280;67372;49.404;11.034;2023-12-07T04:13:11;98525.84;;;2.31;85.63
75627;BME280;67372;49.404;11.034;2023-12-07T04:15:37;98527.13;;;2.27;85.26
75627;BME280;67372;49.404;11.034;2023-12-07T04:18:04;98524.31;;;2.21;85.91
75627;BME280;67372;49.404;11.034;2023-12-07T04:20:30;98521.84;;;2.19;85.74
75627;BME280;67372;49.404;11.034;2023-12-07T04:22:56;98520.84;;;2.20;85.80
75627;BME280;67372;49.404;11.034;2023-12-07T04:25:23;98520.84;;;2.20;86.27
75627;BME280;67372;49.404;11.034;2023-12-07T04:27:49;98520.84;;;2.20;86.14
75627;BME280;67372;49.404;11.034;2023-12-07T04:30:16;98523.31;;;2.22;86.19
75627;BME280;67372;49.404;11.034;2023-12-07T04:32:42;98528.59;;;2.22;85.58
75627;BME280;67372;49.404;11.034;2023-12-07T04:35:09;98531.06;;;2.23;86.23
75627;BME280;67372;49.404;11.034;2023-12-07T04:37:35;98526.47;;;2.25;86.08
75627;BME280;67372;49.404;11.034;2023-12-07T04:40:02;98526.16;;;2.28;85.57
75627;BME280;67372;49.404;11.034;2023-12-07T04:42:28;98529.28;;;2.32;85.63
75627;BME280;67372;49.404;11.034;2023-12-07T04:44:55;98536.06;;;2.34;85.78
75627;BME280;67372;49.404;11.034;2023-12-07T04:47:22;98535.91;;;2.36;85.43
75627;BME280;67372;49.404;11.034;2023-12-07T04:49:48;98538.53;;;2.36;85.53
75627;BME280;67372;49.404;11.034;2023-12-07T04:52:15;98542.97;;;2.35;85.40
75627;BME280;67372;49.404;11.034;2023-12-07T04:54:41;98546.56;;;2.34;85.39
75627;BME280;67372;49.404;11.034;2023-12-07T04:57:08;98541.63;;;2.31;85.63
75627;BME280;67372;49.404;11.034;2023-12-07T04:59:34;98545.75;;;2.34;86.02
75627;BME280;67372;49.404;11.034;2023-12-07T05:02:04;98546.75;;;2.33;85.83
75627;BME280;67372;49.404;11.034;2023-12-07T05:04:31;98546.38;;;2.28;85.60
75627;BME280;67372;49.404;11.034;2023-12-07T05:06:58;98545.72;;;2.26;85.46
75627;BME280;67372;49.404;11.034;2023-12-07T05:09:25;98538.97;;;2.23;85.56
75627;BME280;67372;49.404;11.034;2023-12-07T05:11:52;98548.50;;;2.24;85.61
75627;BME280;67372;49.404;11.034;2023-12-07T05:14:18;98541.75;;;2.22;85.09
75627;BME280;67372;49.404;11.034;2023-12-07T05:16:44;98541.25;;;2.18;85.29
75627;BME280;67372;49.404;11.034;2023-12-07T05:19:11;98541.72;;;2.13;85.40
75627;BME280;67372;49.404;11.034;2023-12-07T05:21:37;98536.06;;;2.08;85.62
75627;BME280;67372;49.404;11.034;2023-12-07T05:24:04;98545.09;;;2.06;85.44
75627;BME280;67372;49.404;11.034;2023-12-07T05:26:30;98545.56;;;2.01;85.49
75627;BME280;67372;49.404;11.034;2023-12-07T05:28:57;98550.75;;;1.93;85.33
75627;BME280;67372;49.404;11.034;2023-12-07T05:31:23;98547.22;;;1.84;85.40
75627;BME280;67372;49.404;11.034;2023-12-07T05:33:50;98560.16;;;1.78;85.62
75627;BME280;67372;49.404;11.034;2023-12-07T05:36:16;98561.44;;;1.74;85.33
75627;BME280;67372;49.404;11.034;2023-12-07T05:38:43;98554.31;;;1.66;85.26
75627;BME280;67372;49.404;11.034;2023-12-07T05:41:09;98555.22;;;1.57;85.27
75627;BME280;67372;49.404;11.034;2023-12-07T05:43:35;98560.56;;;1.47;85.39
75627;BME280;67372;49.404;11.034;2023-12-07T05:46:02;98566.53;;;1.40;85.17
75627;BME280;67372;49.404;11.034;2023-12-07T05:48:28;98567.28;;;1.32;85.34
75627;BME280;67372;49.404;11.034;2023-12-07T05:50:55;98568.03;;;1.25;85.06
75627;BME280;67372;49.404;11.034;2023-12-07T05:53:21;98562.84;;;1.15;85.22
75627;BME280;67372;49.404;11.034;2023-12-07T05:55:47;98566.22;;;1.07;85.41
75627;BME280;67372;49.404;11.034;2023-12-07T05:58:14;98565.16;;;1.00;85.08
75627;BME280;67372;49.404;11.034;2023-12-07T06:00:41;98576.22;;;0.94;85.55
75627;BME280;67372;49.404;11.034;2023-12-07T06:03:07;98569.75;;;0.88;85.19
75627;BME280;67372;49.404;11.034;2023-12-07T06:05:34;98566.22;;;0.80;85.48
75627;BME280;67372;49.404;11.034;2023-12-07T06:08:00;98578.44;;;0.71;85.92
75627;BME280;67372;49.404;11.034;2023-12-07T06:10:26;98576.22;;;0.67;86.55
75627;BME280;67372;49.404;11.034;2023-12-07T06:12:53;98577.84;;;0.68;86.26
75627;BME280;67372;49.404;11.034;2023-12-07T06:15:19;98582.28;;;0.67;86.50
75627;BME280;67372;49.404;11.034;2023-12-07T06:17:46;98579.66;;;0.67;86.36
75627;BME280;67372;49.404;11.034;2023-12-07T06:20:12;98579.50;;;0.69;86.90
75627;BME280;67372;49.404;11.034;2023-12-07T06:22:39;98584.63;;;0.70;86.48
75627;BME280;67372;49.404;11.034;2023-12-07T06:25:06;98589.75;;;0.72;86.32
75627;BME280;67372;49.404;11.034;2023-12-07T06:27:34;98584.63;;;0.70;86.68
75627;BME280;67372;49.404;11.034;2023-12-07T06:30:00;98586.72;;;0.67;86.80
75627;BME280;67372;49.404;11.034;2023-12-07T06:32:27;98584.09;;;0.67;86.60
75627;BME280;67372;49.404;11.034;2023-12-07T06:34:53;98593.75;;;0.66;86.33
75627;BME280;67372;49.404;11.034;2023-12-07T06:37:20;98593.91;;;0.65;86.65
75627;BME280;67372;49.404;11.034;2023-12-07T06:39:46;98594.88;;;0.64;86.05
75627;BME280;67372;49.404;11.034;2023-12-07T06:42:13;98595.03;;;0.62;86.35
75627;BME280;67372;49.404;11.034;2023-12-07T06:44:39;98600.41;;;0.60;86.54
75627;BME280;67372;49.404;11.034;2023-12-07T06:47:05;98596.13;;;0.59;86.55
75627;BME280;67372;49.404;11.034;2023-12-07T06:49:32;98596.97;;;0.60;86.71
75627;BME280;67372;49.404;11.034;2023-12-07T06:52:15;98599.44;;;0.61;86.13
75627;BME280;67372;49.404;11.034;2023-12-07T06:54:41;98600.56;;;0.59;87.89
75627;BME280;67372;49.404;11.034;2023-12-07T06:57:08;98606.25;;;0.54;86.97
75627;BME280;67372;49.404;11.034;2023-12-07T06:59:35;98610.97;;;0.51;87.12
75627;BME280;67372;49.404;11.034;2023-12-07T07:02:01;98615.78;;;0.46;88.23
75627;BME280;67372;49.404;11.034;2023-12-07T07:04:28;98604.06;;;0.40;90.87
75627;BME280;67372;49.404;11.034;2023-12-07T07:06:54;98617.31;;;0.39;91.42
75627;BME280;67372;49.404;11.034;2023-12-07T07:09:20;98620.06;;;0.47;92.74
75627;BME280;67372;49.404;11.034;2023-12-07T07:11:48;98612.31;;;0.45;89.96
75627;BME280;67372;49.404;11.034;2023-12-07T07:14:15;98615.78;;;0.46;89.71
75627;BME280;67372;49.404;11.034;2023-12-07T07:16:42;98619.38;;;0.45;89.84
75627;BME280;67372;49.404;11.034;2023-12-07T07:19:08;98629.63;;;0.48;89.95
75627;BME280;67372;49.404;11.034;2023-12-07T07:21:35;98622.69;;;0.47;89.43
75627;BME280;67372;49.404;11.034;2023-12-07T07:24:01;98625.72;;;0.52;89.50
75627;BME280;67372;49.404;11.034;2023-12-07T07:26:29;98635.78;;;0.56;88.97
75627;BME280;67372;49.404;11.034;2023-12-07T07:28:56;98635.38;;;0.61;88.55
75627;BME280;67372;49.404;11.034;2023-12-07T07:31:22;98628.41;;;0.70;88.74
75627;BME280;67372;49.404;11.034;2023-12-07T07:33:48;98626.06;;;0.76;88.34
75627;BME280;67372;49.404;11.034;2023-12-07T07:36:25;98628.78;;;0.84;88.12
75627;BME280;67372;49.404;11.034;2023-12-07T07:38:52;98629.56;;;0.95;88.28
75627;BME280;67372;49.404;11.034;2023-12-07T07:41:18;98630.22;;;1.06;88.21
75627;BME280;67372;49.404;11.034;2023-12-07T07:43:44;98641.34;;;1.18;87.74
75627;BME280;67372;49.404;11.034;2023-12-07T07:46:11;98636.88;;;1.28;87.90
75627;BME280;67372;49.404;11.034;2023-12-07T07:48:37;98634.19;;;1.38;87.05
75627;BME280;67372;49.404;11.034;2023-12-07T07:51:04;98628.53;;;1.42;86.91
75627;BME280;67372;49.404;11.034;2023-12-07T07:53:30;98636.34;;;1.52;87.34
75627;BME280;67372;49.404;11.034;2023-12-07T07:55:57;98635.28;;;1.63;87.25
75627;BME280;67372;49.404;11.034;2023-12-07T07:58:23;98632.75;;;1.71;86.93
75627;BME280;67372;49.404;11.034;2023-12-07T08:00:50;98636.28;;;1.79;86.69
75627;BME280;67372;49.404;11.034;2023-12-07T08:03:17;98637.16;;;1.88;86.61
75627;BME280;67372;49.404;11.034;2023-12-07T08:05:44;98637.25;;;1.96;85.98
75627;BME280;67372;49.404;11.034;2023-12-07T08:08:10;98626.78;;;2.04;86.95
75627;BME280;67372;49.404;11.034;2023-12-07T08:10:37;98630.63;;;2.10;86.09
75627;BME280;67372;49.404;11.034;2023-12-07T08:13:21;98632.50;;;2.18;86.71
75627;BME280;67372;49.404;11.034;2023-12-07T08:15:48;98627.91;;;2.20;86.19
75627;BME280;67372;49.404;11.034;2023-12-07T08:18:14;98631.75;;;2.25;86.62
75627;BME280;67372;49.404;11.034;2023-12-07T08:20:41;98634.25;;;2.35;86.28
75627;BME280;67372;49.404;11.034;2023-12-07T08:23:09;98632.69;;;2.42;85.80
75627;BME280;67372;49.404;11.034;2023-12-07T08:25:38;98630.94;;;2.51;86.08
75627;BME280;67372;49.404;11.034;2023-12-07T08:28:04;98639.03;;;2.57;85.83
75627;BME280;67372;49.404;11.034;2023-12-07T08:30:31;98640.25;;;2.63;85.25
75627;BME280;67372;49.404;11.034;2023-12-07T08:32:57;98641.88;;;2.64;85.56
75627;BME280;67372;49.404;11.034;2023-12-07T08:35:25;98642.03;;;2.62;84.97
75627;BME280;67372;49.404;11.034;2023-12-07T08:37:51;98637.28;;;2.66;85.77
75627;BME280;67372;49.404;11.034;2023-12-07T08:40:18;98643.59;;;2.73;85.33
75627;BME280;67372;49.404;11.034;2023-12-07T08:42:45;98639.13;;;2.73;84.88
75627;BME280;67372;49.404;11.034;2023-12-07T08:45:14;98648.53;;;2.76;85.46
75627;BME280;67372;49.404;11.034;2023-12-07T08:47:41;98648.84;;;2.73;84.88
75627;BME280;67372;49.404;11.034;2023-12-07T08:50:08;98647.50;;;2.69;84.33
75627;BME280;67372;49.404;11.034;2023-12-07T08:52:35;98649.31;;;2.68;85.27
75627;BME280;67372;49.404;11.034;2023-12-07T08:55:12;98646.53;;;2.70;84.15
75627;BME280;67372;49.404;11.034;2023-12-07T08:57:39;98652.63;;;2.70;84.32
75627;BME280;67372;49.404;11.034;2023-12-07T09:00:06;98648.34;;;2.69;83.88
75627;BME280;67372;49.404;11.034;2023-12-07T09:02:32;98650.31;;;2.67;85.07
75627;BME280;67372;49.404;11.034;2023-12-07T09:05:12;98653.91;;;2.66;84.28
75627;BME280;67372;49.404;11.034;2023-12-07T09:07:38;98647.81;;;2.66;84.56
75627;BME280;67372;49.404;11.034;2023-12-07T09:10:05;98647.81;;;2.66;84.91
75627;BME280;67372;49.404;11.034;2023-12-07T09:12:32;98651.94;;;2.68;84.73
75627;BME280;67372;49.404;11.034;2023-12-07T09:15:05;98653.09;;;2.66;83.84
75627;BME280;67372;49.404;11.034;2023-12-07T09:17:32;98640.69;;;2.58;83.94
75627;BME280;67372;49.404;11.034;2023-12-07T09:19:59;98643.78;;;2.54;84.15
75627;BME280;67372;49.404;11.034;2023-12-07T09:22:26;98650.84;;;2.53;84.20
75627;BME280;67372;49.404;11.034;2023-12-07T09:25:03;98646.38;;;2.45;84.37
75627;BME280;67372;49.404;11.034;2023-12-07T09:27:29;98646.69;;;2.42;85.05
75627;BME280;67372;49.404;11.034;2023-12-07T09:29:56;98651.28;;;2.40;84.89
75627;BME280;67372;49.404;11.034;2023-12-07T09:32:23;98657.38;;;2.41;84.63
75627;BME280;67372;49.404;11.034;2023-12-07T09:35:01;98652.25;;;2.39;84.83
75627;BME280;67372;49.404;11.034;2023-12-07T09:37:28;98647.66;;;2.41;84.92
75627;BME280;67372;49.404;11.034;2023-12-07T09:39:54;98658.56;;;2.46;84.85
75627;BME280;67372;49.404;11.034;2023-12-07T09:42:21;98652.47;;;2.46;84.44
75627;BME280;67372;49.404;11.034;2023-12-07T09:44:57;98649.00;;;2.45;84.97
75627;BME280;67372;49.404;11.034;2023-12-07T09:47:23;98642.91;;;2.45;85.43
75627;BME280;67372;49.404;11.034;2023-12-07T09:50:01;98645.06;;;2.50;85.39
75627;BME280;67372;49.404;11.034;2023-12-07T09:52:28;98650.03;;;2.53;85.06
75627;BME280;67372;49.404;11.034;2023-12-07T09:54:56;98646.94;;;2.57;84.75
75627;BME280;67372;49.404;11.034;2023-12-07T09:57:23;98638.34;;;2.55;84.79
75627;BME280;67372;49.404;11.034;2023-12-07T09:59:50;98641.50;;;2.59;85.24
75627;BME280;67372;49.404;11.034;2023-12-07T10:02:17;98637.97;;;2.68;85.83
75627;BME280;67372;49.404;11.034;2023-12-07T10:04:43;98631.75;;;2.77;85.37
75627;BME280;67372;49.404;11.034;2023-12-07T10:07:10;98629.19;;;2.85;84.89
75627;BME280;67372;49.404;11.034;2023-12-07T10:09:40;98623.13;;;2.93;84.88
75627;BME280;67372;49.404;11.034;2023-12-07T10:12:09;98620.47;;;2.93;84.70
75627;BME280;67372;49.404;11.034;2023-12-07T10:14:37;98620.00;;;2.97;84.79
75627;BME280;67372;49.404;11.034;2023-12-07T10:17:04;98621.00;;;2.96;84.70
75627;BME280;67372;49.404;11.034;2023-12-07T10:19:32;98618.84;;;3.00;84.25
75627;BME280;67372;49.404;11.034;2023-12-07T10:21:59;98613.94;;;3.05;83.84
75627;BME280;67372;49.404;11.034;2023-12-07T10:24:26;98620.03;;;3.05;83.34
75627;BME280;67372;49.404;11.034;2023-12-07T10:26:52;98613.00;;;3.14;84.04
75627;BME280;67372;49.404;11.034;2023-12-07T10:29:29;98618.13;;;3.24;85.12
75627;BME280;67372;49.404;11.034;2023-12-07T10:32:00;98613.09;;;3.38;84.36
75627;BME280;67372;49.404;11.034;2023-12-07T10:34:27;98620.34;;;3.53;83.79
75627;BME280;67372;49.404;11.034;2023-12-07T10:36:53;98620.72;;;3.66;84.27
75627;BME280;67372;49.404;11.034;2023-12-07T10:39:20;98609.56;;;3.80;81.77
75627;BME280;67372;49.404;11.034;2023-12-07T10:42:00;98606.91;;;3.96;82.49
75627;BME280;67372;49.404;11.034;2023-12-07T10:44:28;98596.19;;;4.14;81.88
75627;BME280;67372;49.404;11.034;2023-12-07T10:46:55;98601.78;;;4.36;81.77
75627;BME280;67372;49.404;11.034;2023-12-07T10:49:24;98596.16;;;4.55;81.86
75627;BME280;67372;49.404;11.034;2023-12-07T10:52:03;98591.81;;;4.70;79.65
75627;BME280;67372;49.404;11.034;2023-12-07T10:55:10;98601.53;;;4.86;78.56
75627;BME280;67372;49.404;11.034;2023-12-07T10:57:41;98594.53;;;5.01;79.68
75627;BME280;67372;49.404;11.034;2023-12-07T11:00:10;98591.03;;;5.09;78.70
75627;BME280;67372;49.404;11.034;2023-12-07T11:02:38;98599.25;;;5.14;76.84
75627;BME280;67372;49.404;11.034;2023-12-07T11:05:05;98588.34;;;5.17;78.26
75627;BME280;67372;49.404;11.034;2023-12-07T11:07:42;98588.69;;;5.22;77.51
75627;BME280;67372;49.404;11.034;2023-12-07T11:10:18;98583.03;;;5.25;77.72
75627;BME280;67372;49.404;11.034;2023-12-07T11:12:50;98578.91;;;5.22;78.11
75627;BME280;67372;49.404;11.034;2023-12-07T11:15:19;98583.16;;;5.32;78.31
75627;BME280;67372;49.404;11.034;2023-12-07T11:17:50;98574.53;;;5.38;76.81
75627;BME280;67372;49.404;11.034;2023-12-07T11:20:54;98564.00;;;5.30;73.95
75627;BME280;67372;49.404;11.034;2023-12-07T11:23:21;98563.66;;;5.33;75.32
75627;BME280;67372;49.404;11.034;2023-12-07T11:25:49;98557.34;;;5.34;76.34
75627;BME280;67372;49.404;11.034;2023-12-07T11:28:15;98550.88;;;5.36;74.69
75627;BME280;67372;49.404;11.034;2023-12-07T11:30:45;98543.56;;;5.46;75.51
75627;BME280;67372;49.404;11.034;2023-12-07T11:33:15;98538.22;;;5.54;77.02
75627;BME280;67372;49.404;11.034;2023-12-07T11:36:03;98535.50;;;5.63;75.22
75627;BME280;67372;49.404;11.034;2023-12-07T11:38:30;98535.84;;;5.60;74.58
75627;BME280;67372;49.404;11.034;2023-12-07T11:40:57;98537.78;;;5.66;74.24
75627;BME280;67372;49.404;11.034;2023-12-07T11:45:59;98528.69;;;5.91;74.95
75627;BME280;67372;49.404;11.034;2023-12-07T11:48:25;98526.91;;;5.92;69.33
75627;BME280;67372;49.404;11.034;2023-12-07T11:51:03;98522.34;;;6.00;71.04
75627;BME280;67372;49.404;11.034;2023-12-07T11:53:32;98519.78;;;6.07;73.00
75627;BME280;67372;49.404;11.034;2023-12-07T11:56:05;98515.13;;;6.09;72.99
75627;BME280;67372;49.404;11.034;2023-12-07T11:58:33;98523.53;;;6.12;71.88
75627;BME280;67372;49.404;11.034;2023-12-07T12:01:06;98526.13;;;6.21;71.96
75627;BME280;67372;49.404;11.034;2023-12-07T12:03:33;98521.47;;;6.23;71.74
75627;BME280;67372;49.404;11.034;2023-12-07T12:06:01;98524.09;;;6.08;68.83
75627;BME280;67372;49.404;11.034;2023-12-07T12:08:28;98525.81;;;6.01;68.97
75627;BME280;67372;49.404;11.034;2023-12-07T12:10:54;98521.59;;;5.92;68.43
75627;BME280;67372;49.404;11.034;2023-12-07T12:13:26;98521.97;;;5.80;68.41
75627;BME280;67372;49.404;11.034;2023-12-07T12:15:55;98515.28;;;5.70;69.75
75627;BME280;67372;49.404;11.034;2023-12-07T12:18:22;98514.13;;;5.72;69.97
75627;BME280;67372;49.404;11.034;2023-12-07T12:20:50;98515.03;;;5.79;68.22
75627;BME280;67372;49.404;11.034;2023-12-07T12:23:17;98513.56;;;5.77;69.75
75627;BME280;67372;49.404;11.034;2023-12-07T12:25:44;98506.91;;;5.81;69.17
75627;BME280;67372;49.404;11.034;2023-12-07T12:28:11;98511.22;;;5.82;68.76
75627;BME280;67372;49.404;11.034;2023-12-07T12:30:40;98507.47;;;5.76;68.34
75627;BME280;67372;49.404;11.034;2023-12-07T12:33:07;98513.78;;;5.67;69.68
75627;BME280;67372;49.404;11.034;2023-12-07T12:35:33;98504.28;;;5.58;69.97
75627;BME280;67372;49.404;11.034;2023-12-07T12:38:00;98497.06;;;5.52;69.03
75627;BME280;67372;49.404;11.034;2023-12-07T12:40:27;98500.75;;;5.43;68.63
75627;BME280;67372;49.404;11.034;2023-12-07T12:42:54;98495.16;;;5.38;68.33
75627;BME280;67372;49.404;11.034;2023-12-07T12:45:23;98490.00;;;5.21;68.02
75627;BME280;67372;49.404;11.034;2023-12-07T12:47:50;98501.78;;;5.11;68.72
75627;BME280;67372;49.404;11.034;2023-12-07T12:50:40;98502.69;;;4.95;68.57
75627;BME280;67372;49.404;11.034;2023-12-07T12:53:08;98499.41;;;4.93;68.74
75627;BME280;67372;49.404;11.034;2023-12-07T12:55:39;98492.69;;;4.82;68.53
75627;BME280;67372;49.404;11.034;2023-12-07T12:58:08;98487.75;;;4.71;69.06
75627;BME280;67372;49.404;11.034;2023-12-07T13:00:37;98485.03;;;4.56;69.43
75627;BME280;67372;49.404;11.034;2023-12-07T13:03:05;98496.44;;;4.49;69.70
75627;BME280;67372;49.404;11.034;2023-12-07T13:05:32;98492.31;;;4.46;70.20
75627;BME280;67372;49.404;11.034;2023-12-07T13:08:00;98483.56;;;4.46;70.19